LSZB/BRN METAR and TAF weather

Enter ICAO airport designator
Station Type Date Time Source
LSZB METAR 2019/05/25 08:50 UTC NOAA

LSZB 250850Z 10005KT 9999 SCT055 BKN070 15/13 Q1016 NOSIG


Station Type Date Time Source
LSZB Decoded METAR 2019/05/25 08:50 UTC NOAA

Bern / Belp , Switzerland (LSZB) 46-55N 007-30E
May 25, 2019 - 04:50 AM EDT / 2019.05.25 0850 UTC
Wind: from the E (100 degrees) at 6 MPH (5 KT):0
Visibility: greater than 7 mile(s):0
Sky conditions: mostly cloudy
Temperature: 59 F (15 C)
Dew Point: 55 F (13 C)
Relative Humidity: 87%
Pressure (altimeter): 30.00 in. Hg (1016 hPa)
ob: LSZB 250850Z 10005KT 9999 SCT055 BKN070 15/13 Q1016 NOSIG
cycle: 9

Station Type Date Time Source
LSZB TAF 2014/12/22 20:03 UTC NOAA

TAF
AMD TAF
AMD LSZB 222054Z 2220/2224 CNL

Example: see airport list